createdAt,value
2022-10-15T00:02:04.606Z,16.43
2022-10-15T00:04:31.437Z,25.40
2022-10-15T00:06:57.980Z,20.50
2022-10-15T00:09:24.517Z,17.00
2022-10-15T00:11:51.296Z,16.87
2022-10-15T00:14:17.826Z,20.80
2022-10-15T00:16:44.350Z,19.53
2022-10-15T00:19:10.966Z,18.30
2022-10-15T00:21:37.542Z,19.93
2022-10-15T00:24:04.038Z,18.00
2022-10-15T00:26:30.588Z,18.60
2022-10-15T00:28:57.195Z,27.73
2022-10-15T00:31:24.304Z,19.60
2022-10-15T00:33:50.799Z,16.50
2022-10-15T00:36:17.300Z,19.70
2022-10-15T00:38:43.858Z,19.80
2022-10-15T00:41:10.398Z,18.60
2022-10-15T00:43:36.894Z,18.13
2022-10-15T00:46:03.353Z,19.13
2022-10-15T00:48:29.824Z,24.63
2022-10-15T00:50:56.809Z,17.13
2022-10-15T00:53:23.275Z,20.50
2022-10-15T00:55:51.062Z,16.70
2022-10-15T00:58:17.540Z,20.93
2022-10-15T01:00:44.123Z,21.40
2022-10-15T01:03:12.597Z,21.17
2022-10-15T01:05:39.161Z,19.83
2022-10-15T01:08:05.644Z,18.10
2022-10-15T01:10:32.169Z,17.67
2022-10-15T01:12:58.753Z,21.53
2022-10-15T01:15:25.299Z,17.50
2022-10-15T01:17:51.791Z,17.50
2022-10-15T01:20:18.315Z,17.70
2022-10-15T01:22:44.858Z,16.73
2022-10-15T01:25:11.353Z,16.77
2022-10-15T01:27:38.053Z,15.50
2022-10-15T01:30:04.893Z,15.27
2022-10-15T01:32:31.441Z,14.57
2022-10-15T01:34:59.075Z,16.97
2022-10-15T01:37:26.137Z,15.30
2022-10-15T01:39:52.959Z,14.03
2022-10-15T01:42:19.498Z,11.70
2022-10-15T01:44:46.069Z,15.40
2022-10-15T01:47:12.565Z,12.60
2022-10-15T01:49:39.075Z,14.00
2022-10-15T01:52:05.601Z,13.03
2022-10-15T01:54:32.081Z,13.80
2022-10-15T01:56:58.655Z,12.20
2022-10-15T01:59:25.252Z,11.73
2022-10-15T02:01:53.177Z,13.80
2022-10-15T02:04:21.723Z,13.13
2022-10-15T02:06:48.291Z,14.17
2022-10-15T02:09:15.354Z,11.63
2022-10-15T02:11:41.871Z,11.67
2022-10-15T02:14:08.384Z,14.97
2022-10-15T02:16:34.924Z,12.53
2022-10-15T02:19:01.491Z,16.80
2022-10-15T02:21:28.000Z,17.30
2022-10-15T02:23:54.483Z,11.80
2022-10-15T02:26:21.051Z,13.23
2022-10-15T02:28:47.612Z,17.07
2022-10-15T02:31:14.129Z,11.30
2022-10-15T02:33:40.716Z,17.30
2022-10-15T02:36:07.309Z,13.03
2022-10-15T02:38:33.836Z,14.40
2022-10-15T02:41:00.534Z,17.10
2022-10-15T02:43:27.048Z,13.17
2022-10-15T02:45:53.569Z,11.53
2022-10-15T02:48:20.058Z,11.07
2022-10-15T02:50:46.962Z,12.90
2022-10-15T02:53:13.530Z,14.10
2022-10-15T02:55:40.165Z,16.60
2022-10-15T02:58:06.687Z,16.60
2022-10-15T03:00:33.253Z,16.90
2022-10-15T03:02:59.736Z,21.50
2022-10-15T03:07:58.071Z,27.67
2022-10-15T03:10:24.558Z,30.20
2022-10-15T03:12:51.083Z,39.17
2022-10-15T03:15:17.564Z,33.30
2022-10-15T03:17:44.233Z,31.17
2022-10-15T03:20:10.712Z,29.67
2022-10-15T03:22:37.244Z,28.43
2022-10-15T03:25:03.801Z,30.43
2022-10-15T03:27:30.407Z,30.10
2022-10-15T03:29:57.060Z,30.20
2022-10-15T03:32:23.631Z,32.10
2022-10-15T03:34:50.274Z,31.40
2022-10-15T03:37:16.847Z,32.67
2022-10-15T03:39:43.406Z,30.93
2022-10-15T03:42:09.951Z,27.97
2022-10-15T03:44:36.485Z,25.90
2022-10-15T03:47:02.988Z,44.40
2022-10-15T03:49:29.506Z,29.47
2022-10-15T03:51:56.013Z,27.63
2022-10-15T03:54:22.518Z,31.10
2022-10-15T03:56:49.026Z,26.33
2022-10-15T03:59:16.220Z,21.93
2022-10-15T04:01:42.743Z,23.50
2022-10-15T04:04:09.300Z,22.00
2022-10-15T04:06:35.857Z,20.47
2022-10-15T04:09:02.435Z,23.60
2022-10-15T04:11:28.969Z,25.47
2022-10-15T04:13:55.469Z,26.23
2022-10-15T04:16:22.013Z,25.80
2022-10-15T04:18:49.142Z,25.50
2022-10-15T04:21:15.665Z,27.63
2022-10-15T04:23:42.196Z,30.93
2022-10-15T04:26:08.724Z,29.67
2022-10-15T04:28:35.297Z,34.20
2022-10-15T04:31:01.864Z,28.40
2022-10-15T04:33:28.363Z,27.50
2022-10-15T04:35:54.852Z,36.10
2022-10-15T04:38:21.349Z,26.90
2022-10-15T04:40:47.830Z,29.40
2022-10-15T04:43:14.497Z,23.70
2022-10-15T04:45:40.986Z,24.73
2022-10-15T04:48:07.477Z,27.60
2022-10-15T04:50:33.947Z,29.07
2022-10-15T04:53:00.520Z,27.80
2022-10-15T04:55:27.065Z,27.70
2022-10-15T04:57:53.584Z,24.73
2022-10-15T05:00:20.109Z,29.23
2022-10-15T05:02:46.610Z,27.83
2022-10-15T05:05:13.109Z,29.73
2022-10-15T05:07:39.645Z,42.30
2022-10-15T05:10:06.163Z,30.30
2022-10-15T05:12:32.727Z,27.43
2022-10-15T05:14:59.290Z,33.70
2022-10-15T05:17:26.077Z,30.27
2022-10-15T05:19:52.915Z,28.20
2022-10-15T05:22:19.405Z,34.33
2022-10-15T05:24:45.929Z,27.43
2022-10-15T05:27:12.416Z,37.40
2022-10-15T05:29:39.769Z,35.93
2022-10-15T05:32:06.435Z,39.77
2022-10-15T05:34:33.665Z,45.87
2022-10-15T05:37:00.192Z,39.20
2022-10-15T05:39:26.702Z,42.10
2022-10-15T05:41:53.517Z,37.33
2022-10-15T05:44:20.101Z,41.63
2022-10-15T05:46:46.617Z,40.30
2022-10-15T05:49:13.413Z,46.83
2022-10-15T05:51:39.909Z,51.17
2022-10-15T05:54:06.445Z,38.23
2022-10-15T05:56:32.970Z,34.33
2022-10-15T05:58:59.500Z,47.57
2022-10-15T06:01:25.993Z,36.57
2022-10-15T06:03:52.499Z,40.83
2022-10-15T06:06:19.059Z,41.23
2022-10-15T06:08:45.721Z,38.13
2022-10-15T06:11:12.321Z,50.40
2022-10-15T06:13:39.223Z,42.53
2022-10-15T06:16:05.812Z,52.57
2022-10-15T06:18:32.389Z,44.47
2022-10-15T06:20:58.922Z,46.43
2022-10-15T06:23:25.429Z,62.73
2022-10-15T06:25:51.988Z,52.00
2022-10-15T06:28:18.549Z,58.07
2022-10-15T06:30:45.161Z,66.97
2022-10-15T06:35:38.292Z,77.10
2022-10-15T06:38:04.766Z,72.77
2022-10-15T06:40:31.276Z,93.90
2022-10-15T06:42:57.944Z,81.93
2022-10-15T06:45:24.465Z,70.63
2022-10-15T06:47:51.027Z,64.17
2022-10-15T06:50:17.553Z,61.53
2022-10-15T06:52:44.504Z,66.20
2022-10-15T06:55:11.021Z,68.50
2022-10-15T06:57:37.540Z,74.97
2022-10-15T07:00:04.096Z,71.30
2022-10-15T07:02:30.695Z,59.93
2022-10-15T07:04:57.236Z,69.07
2022-10-15T07:07:23.795Z,68.80
2022-10-15T07:09:53.418Z,55.97
2022-10-15T07:12:22.337Z,60.07
2022-10-15T07:14:49.265Z,63.10
2022-10-15T07:17:15.806Z,71.43
2022-10-15T07:19:42.888Z,65.40
2022-10-15T07:22:09.472Z,71.83
2022-10-15T07:24:35.982Z,70.97
2022-10-15T07:27:07.983Z,58.63
2022-10-15T07:29:34.964Z,75.23
2022-10-15T07:32:01.570Z,72.67
2022-10-15T07:34:28.158Z,72.60
2022-10-15T07:36:54.700Z,78.37
2022-10-15T07:39:21.224Z,77.57
2022-10-15T07:41:47.863Z,76.20
2022-10-15T07:44:14.404Z,93.83
2022-10-15T07:46:41.010Z,67.10
2022-10-15T07:49:07.675Z,66.50
2022-10-15T07:51:34.176Z,66.13
2022-10-15T07:54:00.778Z,73.63
2022-10-15T07:56:27.274Z,64.27
2022-10-15T07:58:53.883Z,71.20
2022-10-15T08:01:20.395Z,54.60
2022-10-15T08:03:47.201Z,63.50
2022-10-15T08:06:13.697Z,54.30
2022-10-15T08:08:40.347Z,54.13
2022-10-15T08:11:07.049Z,50.10
2022-10-15T08:13:33.593Z,51.90
2022-10-15T08:16:00.500Z,43.67
2022-10-15T08:18:27.534Z,42.43
2022-10-15T08:20:54.145Z,47.47
2022-10-15T08:23:20.723Z,39.17
2022-10-15T08:25:47.316Z,36.80
2022-10-15T08:28:13.855Z,42.47
2022-10-15T08:30:40.378Z,39.37
2022-10-15T08:33:06.914Z,38.30
2022-10-15T08:35:36.587Z,36.60
2022-10-15T08:38:03.250Z,34.40
2022-10-15T08:40:29.856Z,39.23
2022-10-15T08:42:56.412Z,36.50
2022-10-15T08:45:22.993Z,28.53
2022-10-15T08:47:49.688Z,31.37
2022-10-15T08:50:16.276Z,33.77
2022-10-15T08:52:42.810Z,28.60
2022-10-15T08:55:09.318Z,26.90
2022-10-15T08:57:35.930Z,25.17
2022-10-15T09:00:02.627Z,27.00
2022-10-15T09:02:29.133Z,33.83
2022-10-15T09:04:55.624Z,29.10
2022-10-15T09:07:22.407Z,25.30
2022-10-15T09:09:49.368Z,29.43
2022-10-15T09:12:15.981Z,29.97
2022-10-15T09:14:42.622Z,34.70
2022-10-15T09:17:09.198Z,28.20
2022-10-15T09:19:35.717Z,25.53
2022-10-15T09:22:06.705Z,25.33
2022-10-15T09:24:33.402Z,25.70
2022-10-15T09:26:59.963Z,23.03
2022-10-15T09:29:26.521Z,19.40
2022-10-15T09:31:53.108Z,22.80
2022-10-15T09:34:19.681Z,19.90
2022-10-15T09:36:46.324Z,21.13
2022-10-15T09:39:12.825Z,19.33
2022-10-15T09:41:39.475Z,23.73
2022-10-15T09:44:11.072Z,16.57
2022-10-15T09:46:37.748Z,15.67
2022-10-15T09:49:04.381Z,13.80
2022-10-15T09:51:30.922Z,14.40
2022-10-15T09:53:57.583Z,11.57
2022-10-15T09:56:24.169Z,15.90
2022-10-15T09:58:50.873Z,15.33
2022-10-15T10:01:17.522Z,9.17
2022-10-15T10:03:44.035Z,11.40
2022-10-15T10:06:10.577Z,10.30
2022-10-15T10:08:37.133Z,12.77
2022-10-15T10:11:03.807Z,8.33
2022-10-15T10:13:30.351Z,5.40
2022-10-15T10:15:58.586Z,5.40
2022-10-15T10:18:26.256Z,4.30
2022-10-15T10:20:52.838Z,4.67
2022-10-15T10:23:19.377Z,3.13
2022-10-15T10:25:45.993Z,3.93
2022-10-15T10:28:12.525Z,3.70
2022-10-15T10:30:39.074Z,9.47
2022-10-15T10:33:05.599Z,3.20
2022-10-15T10:35:32.142Z,2.37
2022-10-15T10:37:58.780Z,3.97
2022-10-15T10:40:25.375Z,2.03
2022-10-15T10:42:52.022Z,3.10
2022-10-15T10:45:19.047Z,4.87
2022-10-15T10:47:45.720Z,3.47
2022-10-15T10:50:12.321Z,2.00
2022-10-15T10:52:38.911Z,1.90
2022-10-15T10:55:05.450Z,1.70
2022-10-15T10:57:31.971Z,1.30
2022-10-15T10:59:58.541Z,1.30
2022-10-15T11:02:25.082Z,1.40
2022-10-15T11:04:51.601Z,1.37
2022-10-15T11:07:18.366Z,4.60
2022-10-15T11:09:44.940Z,2.80
2022-10-15T11:12:11.491Z,2.43
2022-10-15T11:14:38.155Z,7.50
2022-10-15T11:17:04.684Z,1.43
2022-10-15T11:24:49.149Z,1.30
2022-10-15T11:27:16.223Z,2.33
2022-10-15T11:29:42.762Z,1.10
2022-10-15T11:32:17.188Z,1.30
2022-10-15T11:34:44.420Z,1.30
2022-10-15T11:37:10.933Z,1.20
2022-10-15T11:39:37.889Z,1.27
2022-10-15T11:42:04.407Z,1.43
2022-10-15T11:44:30.961Z,1.83
2022-10-15T11:46:57.605Z,1.17
2022-10-15T11:49:24.821Z,1.50
2022-10-15T11:51:51.428Z,2.10
2022-10-15T11:54:17.966Z,2.13
2022-10-15T11:56:44.600Z,1.20
2022-10-15T11:59:11.293Z,1.10
2022-10-15T12:01:37.852Z,3.23
2022-10-15T12:04:04.427Z,1.00
2022-10-15T12:06:31.036Z,1.47
2022-10-15T12:08:57.556Z,1.90
2022-10-15T12:11:24.081Z,1.83
2022-10-15T12:13:50.622Z,4.90
2022-10-15T12:16:17.425Z,0.90
2022-10-15T12:18:43.952Z,1.10
2022-10-15T12:21:10.494Z,1.00
2022-10-15T12:23:37.111Z,1.73
2022-10-15T12:26:03.791Z,1.50
2022-10-15T12:28:30.545Z,1.33
2022-10-15T12:30:57.219Z,1.20
2022-10-15T12:33:23.733Z,2.30
2022-10-15T12:35:50.289Z,1.00
2022-10-15T12:38:16.860Z,1.20
2022-10-15T12:40:43.385Z,1.20
2022-10-15T12:43:09.898Z,4.03
2022-10-15T12:45:39.932Z,1.33
2022-10-15T12:48:07.209Z,1.40
2022-10-15T12:50:33.764Z,2.07
2022-10-15T12:53:00.430Z,0.97
2022-10-15T12:55:27.009Z,1.30
2022-10-15T12:57:53.781Z,1.10
2022-10-15T13:00:20.381Z,7.60
2022-10-15T13:02:46.917Z,1.20
2022-10-15T13:05:13.457Z,1.20
2022-10-15T13:07:40.910Z,1.97
2022-10-15T13:10:07.452Z,1.30
2022-10-15T13:12:34.077Z,1.30
2022-10-15T13:15:03.622Z,0.97
2022-10-15T13:17:30.703Z,2.50
2022-10-15T13:19:58.066Z,1.50
2022-10-15T13:22:24.997Z,1.20
2022-10-15T13:24:51.797Z,1.10
2022-10-15T13:27:18.331Z,1.20
2022-10-15T13:29:44.830Z,3.07
2022-10-15T13:32:11.387Z,3.20
2022-10-15T13:34:37.901Z,8.23
2022-10-15T13:37:04.615Z,3.47
2022-10-15T13:39:31.242Z,1.10
2022-10-15T13:41:57.945Z,1.73
2022-10-15T13:44:24.470Z,1.30
2022-10-15T13:46:51.068Z,1.00
2022-10-15T13:49:17.615Z,1.10
2022-10-15T13:51:44.301Z,1.10
2022-10-15T13:54:10.813Z,1.10
2022-10-15T13:56:37.479Z,1.00
2022-10-15T13:59:03.966Z,2.13
2022-10-15T14:01:30.591Z,1.30
2022-10-15T14:03:57.165Z,1.30
2022-10-15T14:06:23.680Z,1.00
2022-10-15T14:08:50.179Z,2.67
2022-10-15T14:11:17.698Z,0.90
2022-10-15T14:13:44.263Z,0.90
2022-10-15T14:16:10.743Z,0.97
2022-10-15T14:18:37.352Z,1.60
2022-10-15T14:21:03.893Z,1.07
2022-10-15T14:23:30.457Z,1.00
2022-10-15T14:25:57.048Z,1.20
2022-10-15T14:28:23.789Z,3.93
2022-10-15T14:30:50.377Z,1.10
2022-10-15T14:33:16.881Z,1.00
2022-10-15T14:35:43.374Z,1.13
2022-10-15T14:38:09.927Z,1.07
2022-10-15T14:40:36.464Z,6.50
2022-10-15T14:43:06.051Z,0.90
2022-10-15T14:45:32.564Z,0.90
2022-10-15T14:47:59.141Z,1.50
2022-10-15T14:50:25.723Z,3.43
2022-10-15T14:52:52.216Z,1.37
2022-10-15T14:55:18.707Z,9.30
2022-10-15T14:57:45.252Z,3.47
2022-10-15T15:00:11.744Z,2.80
2022-10-15T15:02:38.348Z,1.10
2022-10-15T15:05:04.950Z,1.17
2022-10-15T15:07:31.444Z,1.60
2022-10-15T15:09:58.093Z,0.93
2022-10-15T15:12:27.089Z,1.73
2022-10-15T15:14:54.597Z,1.17
2022-10-15T15:17:21.182Z,20.93
2022-10-15T15:19:47.725Z,1.17
2022-10-15T15:22:14.628Z,1.00
2022-10-15T15:24:41.111Z,1.40
2022-10-15T15:27:07.787Z,37.87
2022-10-15T15:29:34.286Z,2.03
2022-10-15T15:32:00.770Z,1.00
2022-10-15T15:34:27.331Z,1.10
2022-10-15T15:36:53.832Z,1.47
2022-10-15T15:39:20.596Z,1.90
2022-10-15T15:41:47.129Z,1.20
2022-10-15T15:44:13.621Z,1.07
2022-10-15T15:46:40.090Z,1.00
2022-10-15T15:49:06.619Z,2.77
2022-10-15T15:51:33.187Z,1.27
2022-10-15T15:53:59.876Z,3.93
2022-10-15T15:56:26.534Z,2.40
2022-10-15T15:58:53.206Z,1.10
2022-10-15T16:01:19.879Z,1.43
2022-10-15T16:03:48.929Z,1.90
2022-10-15T16:06:15.797Z,1.13
2022-10-15T16:08:42.332Z,1.80
2022-10-15T16:11:08.805Z,1.00
2022-10-15T16:13:35.311Z,1.10
2022-10-15T16:16:01.833Z,2.30
2022-10-15T16:18:28.331Z,3.47
2022-10-15T16:20:54.816Z,1.00
2022-10-15T16:23:21.368Z,2.37
2022-10-15T16:25:47.932Z,1.63
2022-10-15T16:28:14.598Z,1.10
2022-10-15T16:30:41.159Z,3.90
2022-10-15T16:35:35.632Z,2.20
2022-10-15T16:38:02.174Z,1.40
2022-10-15T16:40:28.715Z,4.07
2022-10-15T16:42:55.223Z,4.07
2022-10-15T16:45:21.726Z,2.90
2022-10-15T16:47:49.199Z,24.30
2022-10-15T16:50:17.110Z,8.00
2022-10-15T16:52:43.796Z,7.93
2022-10-15T16:55:10.451Z,3.57
2022-10-15T16:57:37.173Z,2.53
2022-10-15T17:00:04.274Z,11.93
2022-10-15T17:02:30.758Z,6.07
2022-10-15T17:04:57.341Z,7.67
2022-10-15T17:07:24.390Z,2.30
2022-10-15T17:09:51.131Z,4.00
2022-10-15T17:12:17.765Z,12.43
2022-10-15T17:14:44.269Z,2.40
2022-10-15T17:17:10.866Z,2.00
2022-10-15T17:19:37.445Z,9.60
2022-10-15T17:22:03.921Z,2.53
2022-10-15T17:24:30.448Z,2.90
2022-10-15T17:26:58.145Z,3.90
2022-10-15T17:29:27.833Z,6.30
2022-10-15T17:31:57.357Z,2.20
2022-10-15T17:34:23.931Z,3.20
2022-10-15T17:36:50.811Z,2.40
2022-10-15T17:39:17.405Z,2.37
2022-10-15T17:41:44.034Z,2.20
2022-10-15T17:44:11.609Z,3.03
2022-10-15T17:46:38.179Z,1.67
2022-10-15T17:49:04.753Z,5.80
2022-10-15T17:51:31.313Z,43.33
2022-10-15T17:53:57.917Z,5.47
2022-10-15T17:56:24.468Z,6.23
2022-10-15T17:58:51.165Z,4.03
2022-10-15T18:01:27.945Z,1.60
2022-10-15T18:04:04.365Z,6.97
2022-10-15T18:06:30.911Z,4.50
2022-10-15T18:08:57.405Z,4.40
2022-10-15T18:11:24.370Z,3.57
2022-10-15T18:13:50.897Z,5.10
2022-10-15T18:16:17.460Z,19.23
2022-10-15T18:18:44.037Z,4.50
2022-10-15T18:21:12.041Z,4.10
2022-10-15T18:23:39.003Z,3.63
2022-10-15T18:26:05.557Z,5.47
2022-10-15T18:28:32.357Z,9.90
2022-10-15T18:30:59.058Z,16.00
2022-10-15T18:33:25.638Z,8.43
2022-10-15T18:35:52.239Z,13.23
2022-10-15T18:38:18.867Z,5.43
2022-10-15T18:40:45.445Z,13.53
2022-10-15T18:43:12.445Z,16.40
2022-10-15T18:45:40.227Z,6.40
2022-10-15T18:48:06.755Z,3.10
2022-10-15T18:50:33.299Z,2.73
2022-10-15T18:53:03.031Z,2.07
2022-10-15T18:55:29.729Z,9.60
2022-10-15T18:57:56.224Z,4.07
2022-10-15T19:00:22.732Z,4.73
2022-10-15T19:02:49.213Z,6.20
2022-10-15T19:05:15.853Z,9.83
2022-10-15T19:07:42.448Z,5.50
2022-10-15T19:10:08.996Z,34.80
2022-10-15T19:12:35.510Z,5.00
2022-10-15T19:15:02.041Z,4.00
2022-10-15T19:17:29.736Z,8.53
2022-10-15T19:19:56.312Z,11.30
2022-10-15T19:22:23.013Z,19.20
2022-10-15T19:24:49.913Z,11.13
2022-10-15T19:27:16.428Z,7.13
2022-10-15T19:29:42.953Z,6.00
2022-10-15T19:32:10.525Z,12.97
2022-10-15T19:34:37.019Z,15.80
2022-10-15T19:37:03.737Z,7.37
2022-10-15T19:39:32.630Z,6.17
2022-10-15T19:41:59.241Z,5.70
2022-10-15T19:44:27.561Z,9.33
2022-10-15T19:46:54.062Z,4.33
2022-10-15T19:49:20.582Z,8.10
2022-10-15T19:51:47.060Z,8.10
2022-10-15T19:54:14.075Z,13.60
2022-10-15T19:56:40.874Z,11.67
2022-10-15T19:59:10.214Z,15.17
2022-10-15T20:01:36.807Z,17.23
2022-10-15T20:04:06.143Z,9.47
2022-10-15T20:06:33.755Z,10.50
2022-10-15T20:09:02.040Z,7.43
2022-10-15T20:11:28.552Z,17.93
2022-10-15T20:13:55.322Z,13.90
2022-10-15T20:16:23.293Z,11.23
2022-10-15T20:18:51.207Z,15.43
2022-10-15T20:21:17.924Z,8.83
2022-10-15T20:23:44.504Z,10.47
2022-10-15T20:26:11.008Z,8.37
2022-10-15T20:28:37.697Z,9.40
2022-10-15T20:31:04.278Z,9.13
2022-10-15T20:33:30.872Z,8.57
2022-10-15T20:35:57.377Z,12.70
2022-10-15T20:38:23.885Z,8.37
2022-10-15T20:40:50.418Z,13.60
2022-10-15T20:43:16.972Z,16.13
2022-10-15T20:45:43.632Z,11.93
2022-10-15T20:48:10.301Z,10.53
2022-10-15T20:50:36.822Z,7.57
2022-10-15T20:53:03.344Z,6.93
2022-10-15T20:55:29.961Z,6.97
2022-10-15T20:57:56.526Z,14.10
2022-10-15T21:00:23.307Z,8.23
2022-10-15T21:02:50.259Z,10.63
2022-10-15T21:05:16.776Z,9.23
2022-10-15T21:07:43.302Z,10.20
2022-10-15T21:10:09.921Z,7.83
2022-10-15T21:12:36.434Z,11.23
2022-10-15T21:15:03.927Z,8.97
2022-10-15T21:17:30.421Z,8.87
2022-10-15T21:19:56.977Z,10.60
2022-10-15T21:22:23.513Z,10.57
2022-10-15T21:24:50.031Z,8.20
2022-10-15T21:27:16.566Z,12.70
2022-10-15T21:29:44.965Z,13.27
2022-10-15T21:32:11.500Z,10.70
2022-10-15T21:34:38.021Z,10.40
2022-10-15T21:37:04.671Z,8.70
2022-10-15T21:39:31.328Z,8.13
2022-10-15T21:41:58.069Z,16.87
2022-10-15T21:44:24.655Z,17.23
2022-10-15T21:46:51.224Z,8.23
2022-10-15T21:49:17.730Z,6.93
2022-10-15T21:51:44.273Z,6.87
2022-10-15T21:54:11.128Z,11.10
2022-10-15T21:56:37.711Z,9.43
2022-10-15T21:59:04.272Z,9.23
2022-10-15T22:01:31.131Z,13.60
2022-10-15T22:03:57.684Z,8.50
2022-10-15T22:06:24.211Z,7.83
2022-10-15T22:08:50.741Z,8.93
2022-10-15T22:11:17.354Z,9.07
2022-10-15T22:13:44.049Z,7.00
2022-10-15T22:16:10.605Z,10.17
2022-10-15T22:18:37.152Z,8.13
2022-10-15T22:21:03.707Z,11.97
2022-10-15T22:23:30.184Z,7.67
2022-10-15T22:25:56.700Z,8.83
2022-10-15T22:28:23.468Z,8.97
2022-10-15T22:30:50.066Z,7.47
2022-10-15T22:33:16.638Z,11.13
2022-10-15T22:35:43.179Z,24.90
2022-10-15T22:38:09.678Z,5.60
2022-10-15T22:40:36.154Z,6.47
2022-10-15T22:43:02.620Z,11.70
2022-10-15T22:45:29.237Z,17.63
2022-10-15T22:47:55.896Z,7.30
2022-10-15T22:50:22.391Z,7.70
2022-10-15T22:52:48.929Z,12.00
2022-10-15T22:55:15.467Z,8.77
2022-10-15T22:57:41.993Z,8.00
2022-10-15T23:00:08.494Z,6.23
2022-10-15T23:02:35.010Z,6.60
2022-10-15T23:05:01.595Z,14.00
2022-10-15T23:07:28.069Z,5.67
2022-10-15T23:09:54.673Z,8.47
2022-10-15T23:12:22.404Z,12.00
2022-10-15T23:14:48.953Z,10.00
2022-10-15T23:17:18.506Z,13.13
2022-10-15T23:19:45.854Z,6.73
2022-10-15T23:22:12.617Z,11.83
2022-10-15T23:24:39.237Z,8.17
2022-10-15T23:27:05.735Z,5.87
2022-10-15T23:29:32.287Z,14.73
2022-10-15T23:31:58.774Z,12.60
2022-10-15T23:34:25.329Z,8.00
2022-10-15T23:36:51.844Z,8.53
2022-10-15T23:39:18.401Z,7.50
2022-10-15T23:41:45.172Z,12.27
2022-10-15T23:44:11.795Z,7.17
2022-10-15T23:46:38.309Z,9.40
2022-10-15T23:49:04.907Z,5.43
2022-10-15T23:51:31.396Z,5.57
2022-10-15T23:53:58.013Z,12.43
2022-10-15T23:56:24.545Z,8.60
2022-10-15T23:58:51.080Z,6.93
